createdAt,value
2024-02-28T00:02:12.470Z,30.48
2024-02-28T00:05:20.799Z,41.28
2024-02-28T00:08:29.785Z,104.13
2024-02-28T00:11:36.730Z,20.23
2024-02-28T00:14:43.495Z,34.95
2024-02-28T00:17:50.125Z,38.35
2024-02-28T00:20:57.755Z,33.20
2024-02-28T00:24:06.618Z,27.73
2024-02-28T00:27:15.431Z,7.53
2024-02-28T00:30:22.840Z,9.45
2024-02-28T00:33:30.480Z,9.70
2024-02-28T00:36:47.868Z,17.02
2024-02-28T00:40:00.988Z,9.85
2024-02-28T00:43:10.305Z,11.00
2024-02-28T00:46:17.564Z,14.73
2024-02-28T00:49:24.844Z,25.75
2024-02-28T00:52:33.759Z,16.45
2024-02-28T00:55:41.912Z,20.52
2024-02-28T00:58:49.119Z,24.58
2024-02-28T01:01:56.392Z,25.77
2024-02-28T01:05:03.381Z,32.25
2024-02-28T01:08:11.198Z,48.70
2024-02-28T01:11:20.325Z,18.33
2024-02-28T01:14:28.158Z,16.20
2024-02-28T01:17:35.225Z,28.35
2024-02-28T01:20:42.431Z,28.00
2024-02-28T01:23:49.823Z,12.48
2024-02-28T01:26:58.673Z,16.60
2024-02-28T01:30:05.720Z,8.30
2024-02-28T01:33:12.276Z,9.65
2024-02-28T01:36:30.682Z,5.97
2024-02-28T01:39:38.221Z,7.05
2024-02-28T01:42:46.838Z,6.88
2024-02-28T01:45:54.400Z,7.80
2024-02-28T01:49:02.892Z,8.55
2024-02-28T01:52:10.714Z,9.45
2024-02-28T01:55:18.216Z,9.63
2024-02-28T01:58:27.273Z,6.30
2024-02-28T02:01:34.137Z,6.43
2024-02-28T02:04:41.415Z,10.85
2024-02-28T02:07:49.332Z,12.20
2024-02-28T02:10:56.125Z,7.65
2024-02-28T02:14:04.834Z,9.52
2024-02-28T02:17:12.264Z,9.13
2024-02-28T02:20:19.708Z,13.23
2024-02-28T02:23:28.459Z,6.57
2024-02-28T02:26:35.990Z,9.70
2024-02-28T02:29:43.258Z,10.95
2024-02-28T02:32:50.745Z,9.63
2024-02-28T02:35:58.837Z,17.30
2024-02-28T02:39:10.255Z,10.30
2024-02-28T02:42:17.694Z,15.68
2024-02-28T02:45:27.818Z,12.95
2024-02-28T02:48:39.819Z,12.52
2024-02-28T02:51:47.288Z,10.68
2024-02-28T02:54:56.093Z,8.88
2024-02-28T02:58:04.410Z,11.93
2024-02-28T03:01:18.421Z,10.85
2024-02-28T03:04:28.847Z,12.35
2024-02-28T03:07:38.832Z,9.05
2024-02-28T03:10:49.638Z,6.93
2024-02-28T03:13:56.580Z,9.65
2024-02-28T03:17:06.686Z,16.35
2024-02-28T03:20:15.309Z,11.45
2024-02-28T03:23:22.573Z,36.17
2024-02-28T03:26:30.976Z,39.55
2024-02-28T03:29:39.480Z,19.20
2024-02-28T03:32:46.503Z,23.23
2024-02-28T03:35:53.174Z,33.83
2024-02-28T03:39:00.231Z,14.50
2024-02-28T03:42:09.704Z,13.30
2024-02-28T03:45:17.717Z,11.38
2024-02-28T03:48:25.023Z,10.57
2024-02-28T03:51:32.608Z,10.68
2024-02-28T03:54:39.213Z,10.23
2024-02-28T03:57:53.795Z,10.23
2024-02-28T04:01:00.764Z,6.15
2024-02-28T04:04:07.722Z,12.50
2024-02-28T04:07:14.814Z,8.73
2024-02-28T04:10:21.684Z,10.65
2024-02-28T04:13:29.991Z,7.28
2024-02-28T04:16:40.887Z,7.93
2024-02-28T04:19:47.453Z,9.55
2024-02-28T04:22:54.155Z,8.00
2024-02-28T04:26:00.928Z,10.18
2024-02-28T04:29:15.771Z,10.70
2024-02-28T04:32:22.460Z,8.10
2024-02-28T04:35:29.404Z,10.02
2024-02-28T04:38:37.048Z,9.63
2024-02-28T04:41:43.633Z,8.85
2024-02-28T04:44:53.708Z,10.60
2024-02-28T04:48:01.413Z,8.88
2024-02-28T04:51:09.226Z,10.23
2024-02-28T04:54:16.642Z,6.78
2024-02-28T04:57:23.652Z,12.57
2024-02-28T05:00:32.860Z,23.83
2024-02-28T05:03:40.182Z,12.73
2024-02-28T05:06:47.489Z,24.85
2024-02-28T05:09:55.154Z,18.52
2024-02-28T05:13:02.547Z,28.98
2024-02-28T05:16:17.466Z,25.98
2024-02-28T05:19:25.380Z,29.15
2024-02-28T05:22:32.069Z,18.85
2024-02-28T05:25:39.431Z,14.32
2024-02-28T05:28:46.241Z,8.68
2024-02-28T05:31:55.645Z,23.00
2024-02-28T05:35:03.559Z,34.38
2024-02-28T05:38:11.150Z,25.05
2024-02-28T05:41:19.932Z,28.90
2024-02-28T05:44:27.477Z,20.85
2024-02-28T05:47:35.830Z,21.75
2024-02-28T05:50:43.557Z,21.52
2024-02-28T05:53:50.194Z,19.13
2024-02-28T05:56:56.910Z,23.15
2024-02-28T06:00:11.703Z,15.98
2024-02-28T06:03:20.680Z,19.63
2024-02-28T06:06:28.038Z,19.10
2024-02-28T06:09:35.607Z,19.30
2024-02-28T06:12:42.486Z,13.48
2024-02-28T06:15:49.806Z,15.02
2024-02-28T06:19:00.462Z,16.42
2024-02-28T06:22:09.654Z,13.38
2024-02-28T06:25:21.078Z,14.60
2024-02-28T06:28:27.733Z,18.00
2024-02-28T06:31:34.437Z,14.02
2024-02-28T06:34:44.051Z,19.13
2024-02-28T06:37:52.384Z,13.90
2024-02-28T06:40:59.457Z,13.65
2024-02-28T06:44:07.111Z,17.20
2024-02-28T06:47:13.954Z,16.52
2024-02-28T06:50:24.372Z,11.77
2024-02-28T06:53:31.986Z,13.57
2024-02-28T06:56:39.854Z,14.55
2024-02-28T06:59:47.402Z,11.88
2024-02-28T07:02:55.344Z,13.48
2024-02-28T07:06:04.370Z,18.10
2024-02-28T07:09:12.884Z,15.30
2024-02-28T07:12:20.182Z,15.00
2024-02-28T07:15:27.603Z,12.23
2024-02-28T07:18:34.389Z,11.60
2024-02-28T07:21:42.879Z,9.15
2024-02-28T07:24:50.530Z,8.05
2024-02-28T07:27:57.100Z,14.23
2024-02-28T07:31:03.986Z,12.77
2024-02-28T07:34:11.553Z,13.75
2024-02-28T07:37:45.429Z,98.63
2024-02-28T07:41:03.527Z,76.90
2024-02-28T07:44:12.415Z,33.60
2024-02-28T07:47:20.173Z,68.68
2024-02-28T07:50:29.529Z,68.90
2024-02-28T07:53:39.960Z,82.65
2024-02-28T07:56:56.631Z,106.95
2024-02-28T08:00:04.473Z,138.60
2024-02-28T08:03:18.716Z,50.42
2024-02-28T08:06:26.066Z,70.03
2024-02-28T08:09:34.806Z,51.80
2024-02-28T08:12:41.925Z,48.03
2024-02-28T08:15:48.893Z,71.20
2024-02-28T08:18:55.971Z,42.80
2024-02-28T08:22:04.031Z,45.78
2024-02-28T08:25:14.067Z,38.63
2024-02-28T08:28:21.605Z,33.47
2024-02-28T08:31:28.312Z,28.10
2024-02-28T08:34:35.472Z,26.98
2024-02-28T08:37:43.933Z,15.63
2024-02-28T08:40:53.348Z,17.70
2024-02-28T08:44:01.473Z,13.23
2024-02-28T08:47:11.318Z,20.33
2024-02-28T08:50:18.394Z,14.43
2024-02-28T08:53:25.337Z,15.50
2024-02-28T08:56:38.323Z,17.77
2024-02-28T08:59:47.161Z,11.45
2024-02-28T09:02:56.824Z,36.80
2024-02-28T09:06:04.674Z,84.90
2024-02-28T09:09:13.012Z,154.60
2024-02-28T09:12:21.853Z,144.93
2024-02-28T09:15:28.676Z,109.40
2024-02-28T09:18:36.252Z,165.80
2024-02-28T09:21:43.888Z,163.38
2024-02-28T09:24:51.491Z,156.15
2024-02-28T09:27:59.869Z,78.43
2024-02-28T09:31:07.971Z,74.88
2024-02-28T09:34:14.667Z,94.90
2024-02-28T09:37:23.058Z,98.75
2024-02-28T09:40:30.136Z,116.53
2024-02-28T09:43:45.296Z,145.52
2024-02-28T09:46:53.768Z,145.15
2024-02-28T09:50:03.360Z,149.73
2024-02-28T09:53:11.397Z,137.45
2024-02-28T09:56:20.597Z,117.15
2024-02-28T09:59:39.720Z,108.78
2024-02-28T10:02:55.939Z,103.63
2024-02-28T10:06:05.590Z,107.45
2024-02-28T10:09:13.586Z,125.93
2024-02-28T10:12:21.829Z,81.22
2024-02-28T10:15:33.540Z,93.40
2024-02-28T10:18:42.127Z,88.07
2024-02-28T10:21:54.117Z,81.85
2024-02-28T10:25:04.563Z,81.28
2024-02-28T10:28:11.194Z,82.75
2024-02-28T10:31:20.138Z,92.28
2024-02-28T10:34:27.465Z,97.05
2024-02-28T10:37:38.015Z,114.80
2024-02-28T10:40:45.589Z,134.18
2024-02-28T10:43:54.341Z,148.13
2024-02-28T10:47:04.574Z,198.50
2024-02-28T10:50:12.388Z,142.55
2024-02-28T10:53:20.032Z,147.75
2024-02-28T10:56:26.782Z,147.32
2024-02-28T10:59:37.455Z,144.50
2024-02-28T11:02:45.895Z,166.85
2024-02-28T11:05:52.513Z,151.15
2024-02-28T11:08:59.657Z,183.48
2024-02-28T11:12:09.215Z,179.40
2024-02-28T11:15:21.457Z,205.00
2024-02-28T11:18:30.010Z,211.23
2024-02-28T11:21:39.514Z,207.52
2024-02-28T11:24:49.014Z,182.75
2024-02-28T11:27:56.170Z,195.52
2024-02-28T11:31:04.130Z,196.85
2024-02-28T11:34:13.409Z,223.05
2024-02-28T11:37:20.669Z,229.38
2024-02-28T11:40:28.795Z,295.08
2024-02-28T11:43:49.956Z,266.48
2024-02-28T11:46:59.036Z,287.98
2024-02-28T11:50:10.554Z,252.77
2024-02-28T11:53:17.837Z,210.70
2024-02-28T11:56:25.053Z,246.27
2024-02-28T11:59:31.881Z,224.40
2024-02-28T12:02:40.014Z,234.38
2024-02-28T12:05:51.108Z,236.00
2024-02-28T12:08:58.018Z,205.63
2024-02-28T12:12:08.783Z,212.13
2024-02-28T12:15:17.521Z,216.00
2024-02-28T12:18:24.019Z,201.15
2024-02-28T12:21:33.002Z,204.52
2024-02-28T12:24:42.954Z,179.73
2024-02-28T12:27:51.842Z,211.05
2024-02-28T12:30:58.767Z,228.32
2024-02-28T12:34:07.196Z,240.98
2024-02-28T12:37:16.006Z,208.52
2024-02-28T12:40:27.005Z,241.00
2024-02-28T12:43:35.548Z,197.82
2024-02-28T12:46:42.276Z,204.65
2024-02-28T12:49:49.687Z,203.82
2024-02-28T12:52:58.886Z,165.90
2024-02-28T12:56:08.715Z,184.35
2024-02-28T12:59:16.013Z,223.00
2024-02-28T13:02:22.588Z,209.55
2024-02-28T13:05:32.129Z,238.57
2024-02-28T13:08:41.157Z,208.88
2024-02-28T13:11:47.880Z,339.00
2024-02-28T13:14:55.072Z,292.88
2024-02-28T13:18:04.381Z,272.92
2024-02-28T13:21:11.031Z,308.70
2024-02-28T13:24:19.509Z,310.45
2024-02-28T13:27:27.225Z,356.67
2024-02-28T13:30:34.485Z,402.38
2024-02-28T13:33:43.459Z,332.17
2024-02-28T13:36:49.989Z,267.48
2024-02-28T13:39:58.735Z,273.35
2024-02-28T13:43:06.137Z,275.50
2024-02-28T13:46:13.212Z,268.80
2024-02-28T13:49:22.541Z,257.48
2024-02-28T13:52:29.443Z,245.18
2024-02-28T13:55:38.044Z,232.77
2024-02-28T13:58:52.679Z,232.60
2024-02-28T14:02:01.775Z,231.13
2024-02-28T14:05:10.389Z,216.63
2024-02-28T14:08:18.361Z,232.05
2024-02-28T14:11:27.920Z,219.00
2024-02-28T14:14:35.000Z,211.95
2024-02-28T14:17:41.587Z,201.50
2024-02-28T14:20:49.231Z,248.30
2024-02-28T14:23:56.212Z,242.05
2024-02-28T14:27:07.360Z,263.60
2024-02-28T14:30:16.076Z,267.40
2024-02-28T14:33:23.538Z,293.38
2024-02-28T14:36:30.954Z,273.88
2024-02-28T14:39:38.643Z,294.63
2024-02-28T14:42:48.736Z,304.42
2024-02-28T14:45:55.693Z,312.92
2024-02-28T14:49:04.853Z,319.25
2024-02-28T14:52:12.650Z,309.08
2024-02-28T14:55:20.246Z,351.05
2024-02-28T14:58:28.913Z,297.08
2024-02-28T15:01:36.291Z,259.02
2024-02-28T15:04:43.669Z,234.00
2024-02-28T15:07:50.907Z,233.05
2024-02-28T15:10:58.621Z,227.32
2024-02-28T15:14:07.792Z,237.15
2024-02-28T15:17:14.582Z,281.92
2024-02-28T15:20:22.321Z,249.70
2024-02-28T15:23:31.796Z,270.75
2024-02-28T15:26:45.936Z,286.88
2024-02-28T15:29:56.152Z,267.40
2024-02-28T15:33:05.744Z,243.35
2024-02-28T15:36:13.240Z,273.08
2024-02-28T15:39:20.724Z,254.02
2024-02-28T15:42:27.333Z,315.63
2024-02-28T15:45:36.255Z,320.98
2024-02-28T15:48:43.570Z,306.25
2024-02-28T15:51:51.295Z,361.60
2024-02-28T15:54:59.260Z,444.17
2024-02-28T15:58:07.202Z,278.42
2024-02-28T16:01:15.925Z,302.90
2024-02-28T16:04:22.537Z,235.93
2024-02-28T16:07:29.464Z,248.23
2024-02-28T16:10:47.936Z,283.35
2024-02-28T16:13:54.814Z,248.88
2024-02-28T16:17:03.430Z,265.13
2024-02-28T16:20:11.600Z,152.27
2024-02-28T16:23:21.325Z,133.20
2024-02-28T16:26:28.251Z,138.27
2024-02-28T16:29:35.864Z,160.52
2024-02-28T16:32:44.452Z,167.68
2024-02-28T16:35:51.743Z,147.43
2024-02-28T16:38:59.181Z,173.48
2024-02-28T16:42:06.425Z,158.48
2024-02-28T16:45:13.669Z,160.15
2024-02-28T16:48:22.680Z,126.30
2024-02-28T16:51:29.495Z,146.68
2024-02-28T16:54:36.552Z,193.82
2024-02-28T16:57:44.025Z,190.93
2024-02-28T17:00:52.549Z,192.57
2024-02-28T17:04:00.760Z,176.68
2024-02-28T17:07:08.347Z,188.63
2024-02-28T17:10:15.113Z,165.65
2024-02-28T17:13:22.293Z,176.68
2024-02-28T17:16:29.402Z,169.27
2024-02-28T17:19:38.806Z,170.63
2024-02-28T17:22:45.777Z,147.35
2024-02-28T17:25:52.974Z,149.95
2024-02-28T17:29:00.093Z,148.07
2024-02-28T17:32:08.069Z,173.02
2024-02-28T17:35:16.489Z,166.32
2024-02-28T17:38:23.119Z,147.13
2024-02-28T17:41:30.306Z,149.73
2024-02-28T17:44:37.982Z,145.13
2024-02-28T17:47:46.153Z,131.20
2024-02-28T17:50:54.834Z,122.10
2024-02-28T17:54:01.854Z,130.25
2024-02-28T17:57:09.142Z,118.68
2024-02-28T18:00:23.457Z,108.38
2024-02-28T18:03:30.852Z,135.13
2024-02-28T18:06:40.626Z,140.80
2024-02-28T18:09:49.030Z,141.60
2024-02-28T18:12:57.045Z,142.93
2024-02-28T18:16:03.697Z,141.82
2024-02-28T18:19:10.581Z,143.13
2024-02-28T18:22:19.158Z,134.93
2024-02-28T18:25:26.662Z,126.07
2024-02-28T18:28:38.537Z,124.72
2024-02-28T18:31:45.377Z,114.13
2024-02-28T18:34:53.816Z,122.57
2024-02-28T18:38:02.835Z,121.03
2024-02-28T18:41:09.699Z,113.32
2024-02-28T18:44:18.289Z,131.50
2024-02-28T18:47:26.033Z,117.25
2024-02-28T18:50:33.336Z,122.53
2024-02-28T18:53:44.713Z,128.05
2024-02-28T18:56:51.829Z,136.35
2024-02-28T18:59:59.337Z,136.80
2024-02-28T19:03:06.735Z,144.18
2024-02-28T19:06:14.343Z,143.48
2024-02-28T19:09:23.596Z,132.38
2024-02-28T19:12:33.179Z,122.57
2024-02-28T19:15:39.783Z,134.88
2024-02-28T19:18:46.827Z,122.82
2024-02-28T19:21:54.390Z,202.20
2024-02-28T19:25:02.804Z,135.60
2024-02-28T19:28:10.173Z,113.15
2024-02-28T19:31:18.097Z,113.03
2024-02-28T19:34:25.643Z,115.20
2024-02-28T19:37:32.720Z,128.98
2024-02-28T19:40:41.448Z,109.97
2024-02-28T19:43:48.072Z,109.88
2024-02-28T19:46:55.117Z,133.23
2024-02-28T19:50:02.744Z,109.28
2024-02-28T19:53:09.518Z,98.70
2024-02-28T19:56:18.148Z,124.35
2024-02-28T19:59:26.003Z,134.35
2024-02-28T20:02:32.728Z,146.30
2024-02-28T20:05:39.165Z,132.45
2024-02-28T20:08:46.792Z,112.90
2024-02-28T20:11:55.815Z,115.78
2024-02-28T20:15:02.599Z,91.40
2024-02-28T20:18:10.331Z,85.57
2024-02-28T20:21:24.537Z,91.18
2024-02-28T20:24:35.950Z,109.95
2024-02-28T20:27:44.381Z,97.72
2024-02-28T20:30:53.356Z,142.00
2024-02-28T20:34:02.051Z,136.57
2024-02-28T20:37:10.080Z,101.10
2024-02-28T20:40:17.451Z,68.88
2024-02-28T20:43:25.642Z,71.97
2024-02-28T20:46:33.182Z,97.13
2024-02-28T20:49:40.520Z,101.15
2024-02-28T20:52:50.058Z,78.93
2024-02-28T20:55:57.168Z,75.25
2024-02-28T20:59:06.620Z,77.72
2024-02-28T21:02:13.439Z,71.65
2024-02-28T21:05:23.850Z,69.10
2024-02-28T21:08:30.743Z,80.15
2024-02-28T21:11:37.764Z,77.40
2024-02-28T21:14:45.971Z,95.80
2024-02-28T21:17:54.548Z,107.20
2024-02-28T21:21:01.937Z,103.15
2024-02-28T21:24:13.656Z,91.93
2024-02-28T21:27:20.424Z,107.70
2024-02-28T21:30:30.873Z,102.55
2024-02-28T21:33:38.602Z,127.85
2024-02-28T21:36:45.913Z,155.68
2024-02-28T21:39:52.607Z,136.10
2024-02-28T21:43:00.464Z,145.20
2024-02-28T21:46:09.743Z,123.72
2024-02-28T21:49:20.807Z,150.45
2024-02-28T21:52:30.717Z,129.75
2024-02-28T21:55:37.237Z,180.52
2024-02-28T21:58:46.411Z,163.45
2024-02-28T22:01:58.302Z,175.40
2024-02-28T22:05:05.068Z,145.10
2024-02-28T22:08:12.369Z,158.75
2024-02-28T22:11:19.583Z,155.43
2024-02-28T22:14:26.256Z,163.30
2024-02-28T22:17:34.309Z,359.30
2024-02-28T22:20:40.750Z,198.30
2024-02-28T22:23:47.152Z,113.95
2024-02-28T22:26:53.454Z,109.75
2024-02-28T22:30:00.969Z,204.18
2024-02-28T22:33:11.327Z,73.22
2024-02-28T22:36:18.187Z,111.63
2024-02-28T22:39:24.846Z,134.40
2024-02-28T22:42:35.393Z,89.70
2024-02-28T22:45:42.263Z,114.53
2024-02-28T22:48:51.642Z,146.70
2024-02-28T22:51:58.414Z,148.10
2024-02-28T22:55:05.470Z,216.60
2024-02-28T22:58:12.074Z,262.50
2024-02-28T23:01:19.470Z,209.30
2024-02-28T23:04:29.000Z,249.40
2024-02-28T23:07:35.545Z,318.65
2024-02-28T23:10:42.049Z,279.00
2024-02-28T23:13:49.732Z,371.30
2024-02-28T23:16:56.910Z,118.82
2024-02-28T23:20:05.358Z,36.58
2024-02-28T23:23:12.776Z,60.40
2024-02-28T23:26:19.934Z,65.82
2024-02-28T23:29:26.304Z,23.73
2024-02-28T23:32:32.882Z,27.98
2024-02-28T23:35:42.661Z,17.33
2024-02-28T23:38:49.385Z,18.70
2024-02-28T23:42:00.900Z,18.65
2024-02-28T23:45:10.083Z,18.23
2024-02-28T23:48:21.847Z,13.77
2024-02-28T23:51:30.326Z,21.15
2024-02-28T23:54:39.477Z,13.60
2024-02-28T23:57:46.157Z,16.02
